createdAt,value
2023-03-02T00:02:17.604Z,102407.91
2023-03-02T00:04:46.896Z,102418.34
2023-03-02T00:07:15.092Z,102415.72
2023-03-02T00:09:45.245Z,102414.88
2023-03-02T00:12:12.866Z,102416.63
2023-03-02T00:14:40.397Z,102412.34
2023-03-02T00:17:08.462Z,102412.34
2023-03-02T00:19:36.538Z,102414.09
2023-03-02T00:22:04.126Z,102413.25
2023-03-02T00:24:31.685Z,102420.22
2023-03-02T00:27:00.559Z,102418.50
2023-03-02T00:29:28.139Z,102421.09
2023-03-02T00:31:55.773Z,102423.72
2023-03-02T00:34:23.443Z,102430.66
2023-03-02T00:36:51.160Z,102418.56
2023-03-02T00:39:20.139Z,102427.22
2023-03-02T00:41:48.709Z,102421.16
2023-03-02T00:44:18.507Z,102421.22
2023-03-02T00:46:46.316Z,102416.94
2023-03-02T00:49:13.955Z,102419.53
2023-03-02T00:51:41.776Z,102418.69
2023-03-02T00:54:09.375Z,102411.78
2023-03-02T00:56:36.938Z,102415.22
2023-03-02T00:59:11.089Z,102409.16
2023-03-02T01:01:40.051Z,102413.53
2023-03-02T01:04:07.592Z,102406.59
2023-03-02T01:06:35.294Z,102405.72
2023-03-02T01:09:02.880Z,102407.47
2023-03-02T01:11:30.425Z,102401.41
2023-03-02T01:13:57.943Z,102403.16
2023-03-02T01:16:25.665Z,102392.75
2023-03-02T01:18:54.544Z,102401.41
2023-03-02T01:21:22.077Z,102384.97
2023-03-02T01:23:49.670Z,102382.44
2023-03-02T01:26:17.215Z,102381.59
2023-03-02T01:28:44.742Z,102385.91
2023-03-02T01:31:12.382Z,102382.50
2023-03-02T01:33:39.881Z,102374.72
2023-03-02T01:36:09.291Z,102376.44
2023-03-02T01:38:36.847Z,102372.09
2023-03-02T01:41:04.429Z,102373.84
2023-03-02T01:43:31.917Z,102366.97
2023-03-02T01:46:00.061Z,102369.56
2023-03-02T01:48:28.900Z,102373.00
2023-03-02T01:50:56.492Z,102363.53
2023-03-02T01:53:25.597Z,102369.63
2023-03-02T01:55:53.087Z,102373.09
2023-03-02T01:58:21.711Z,102367.03
2023-03-02T02:00:49.387Z,102349.72
2023-03-02T02:03:21.032Z,102356.66
2023-03-02T02:05:50.316Z,102354.09
2023-03-02T02:08:17.783Z,102349.78
2023-03-02T02:10:46.711Z,102353.31
2023-03-02T02:13:14.193Z,102352.41
2023-03-02T02:15:41.692Z,102344.59
2023-03-02T02:18:09.184Z,102351.50
2023-03-02T02:20:37.322Z,102343.69
2023-03-02T02:23:13.440Z,102338.50
2023-03-02T02:25:55.385Z,102338.53
2023-03-02T02:28:25.215Z,102337.69
2023-03-02T02:30:53.166Z,102334.22
2023-03-02T02:33:21.907Z,102338.56
2023-03-02T02:35:49.444Z,102337.69
2023-03-02T02:38:17.327Z,102342.00
2023-03-02T02:40:46.742Z,102345.47
2023-03-02T02:43:14.541Z,102335.97
2023-03-02T02:45:43.519Z,102342.03
2023-03-02T02:48:12.140Z,102341.16
2023-03-02T02:50:39.638Z,102337.69
2023-03-02T02:53:08.071Z,102337.72
2023-03-02T02:55:35.640Z,102340.34
2023-03-02T02:58:09.993Z,102338.66
2023-03-02T03:00:37.917Z,102333.50
2023-03-02T03:03:09.182Z,102338.72
2023-03-02T03:05:36.662Z,102334.41
2023-03-02T03:08:08.138Z,102337.03
2023-03-02T03:10:36.020Z,102337.88
2023-03-02T03:13:03.705Z,102337.03
2023-03-02T03:15:31.341Z,102339.66
2023-03-02T03:17:59.252Z,102348.41
2023-03-02T03:20:28.482Z,102344.13
2023-03-02T03:22:59.265Z,102337.22
2023-03-02T03:25:27.207Z,102339.84
2023-03-02T03:27:54.721Z,102344.16
2023-03-02T03:30:22.665Z,102336.38
2023-03-02T03:32:50.136Z,102334.66
2023-03-02T03:35:17.839Z,102332.03
2023-03-02T03:37:48.535Z,102336.38
2023-03-02T03:40:16.582Z,102338.13
2023-03-02T03:42:44.185Z,102335.56
2023-03-02T03:45:11.750Z,102330.34
2023-03-02T03:47:39.333Z,102335.56
2023-03-02T03:50:07.234Z,102332.97
2023-03-02T03:52:34.749Z,102329.56
2023-03-02T03:55:03.680Z,102332.16
2023-03-02T03:57:31.169Z,102327.00
2023-03-02T03:59:58.663Z,102327.88
2023-03-02T04:02:26.299Z,102333.97
2023-03-02T04:04:53.911Z,102329.66
2023-03-02T04:07:21.388Z,102339.16
2023-03-02T04:09:48.892Z,102335.69
2023-03-02T04:12:17.889Z,102334.84
2023-03-02T04:14:45.547Z,102346.94
2023-03-02T04:17:13.056Z,102337.44
2023-03-02T04:19:40.934Z,102339.16
2023-03-02T04:22:08.425Z,102343.50
2023-03-02T04:24:35.864Z,102332.25
2023-03-02T04:27:03.271Z,102338.34
2023-03-02T04:29:32.744Z,102336.63
2023-03-02T04:32:00.328Z,102335.75
2023-03-02T04:34:27.972Z,102338.38
2023-03-02T04:36:55.536Z,102340.13
2023-03-02T04:39:23.123Z,102342.72
2023-03-02T04:41:50.664Z,102345.31
2023-03-02T04:44:18.628Z,102343.63
2023-03-02T04:46:47.659Z,102340.22
2023-03-02T04:49:16.120Z,102350.63
2023-03-02T04:51:45.240Z,102347.13
2023-03-02T04:54:14.903Z,102354.91
2023-03-02T04:56:42.369Z,102354.03
2023-03-02T04:59:09.963Z,102345.41
2023-03-02T05:01:37.452Z,102341.97
2023-03-02T05:04:08.310Z,102342.00
2023-03-02T05:06:35.950Z,102352.41
2023-03-02T05:09:04.690Z,102343.75
2023-03-02T05:11:32.252Z,102345.47
2023-03-02T05:14:00.332Z,102346.34
2023-03-02T05:16:29.063Z,102351.53
2023-03-02T05:18:56.883Z,102349.81
2023-03-02T05:21:25.820Z,102345.50
2023-03-02T05:23:53.486Z,102353.28
2023-03-02T05:26:21.013Z,102347.19
2023-03-02T05:28:48.523Z,102341.13
2023-03-02T05:31:17.729Z,102346.34
2023-03-02T05:33:45.336Z,102352.41
2023-03-02T05:36:12.811Z,102347.19
2023-03-02T05:38:41.702Z,102346.31
2023-03-02T05:41:09.220Z,102342.88
2023-03-02T05:43:36.816Z,102343.75
2023-03-02T05:46:04.369Z,102344.59
2023-03-02T05:48:32.101Z,102342.00
2023-03-02T05:50:59.948Z,102346.31
2023-03-02T05:53:27.461Z,102343.72
2023-03-02T05:55:56.413Z,102346.31
2023-03-02T05:58:23.899Z,102341.13
2023-03-02T06:00:51.428Z,102344.59
2023-03-02T06:03:18.983Z,102355.00
2023-03-02T06:05:52.231Z,102354.09
2023-03-02T06:08:19.914Z,102351.50
2023-03-02T06:10:47.420Z,102348.03
2023-03-02T06:13:16.354Z,102354.94
2023-03-02T06:15:44.020Z,102357.56
2023-03-02T06:18:12.602Z,102359.31
2023-03-02T06:20:40.517Z,102361.94
2023-03-02T06:23:08.017Z,102365.38
2023-03-02T06:25:37.020Z,102365.38
2023-03-02T06:28:04.712Z,102371.41
2023-03-02T06:30:33.612Z,102371.41
2023-03-02T06:33:01.656Z,102364.50
2023-03-02T06:35:29.277Z,102374.03
2023-03-02T06:37:56.964Z,102374.88
2023-03-02T06:40:24.422Z,102374.88
2023-03-02T06:42:51.940Z,102372.28
2023-03-02T06:45:19.393Z,102378.31
2023-03-02T06:47:48.311Z,102377.47
2023-03-02T06:50:15.848Z,102377.50
2023-03-02T06:52:43.342Z,102382.69
2023-03-02T06:55:11.135Z,102376.59
2023-03-02T06:57:38.894Z,102378.31
2023-03-02T07:00:09.824Z,102378.25
2023-03-02T07:02:37.614Z,102382.56
2023-03-02T07:05:07.353Z,102381.69
2023-03-02T07:07:34.794Z,102374.78
2023-03-02T07:10:02.378Z,102377.38
2023-03-02T07:12:30.015Z,102383.41
2023-03-02T07:14:57.466Z,102373.88
2023-03-02T07:17:24.960Z,102374.69
2023-03-02T07:19:52.518Z,102376.41
2023-03-02T07:22:21.546Z,102376.38
2023-03-02T07:24:49.057Z,102381.56
2023-03-02T07:27:16.531Z,102382.41
2023-03-02T07:29:44.082Z,102378.03
2023-03-02T07:32:12.668Z,102371.97
2023-03-02T07:34:40.226Z,102380.56
2023-03-02T07:37:07.751Z,102381.41
2023-03-02T07:39:36.787Z,102371.84
2023-03-02T07:42:07.046Z,102379.63
2023-03-02T07:44:34.483Z,102371.81
2023-03-02T07:47:38.948Z,102372.63
2023-03-02T07:50:06.943Z,102370.88
2023-03-02T07:52:34.502Z,102371.72
2023-03-02T07:55:02.089Z,102371.72
2023-03-02T07:57:29.542Z,102366.50
2023-03-02T07:59:57.035Z,102369.03
2023-03-02T08:02:25.507Z,102376.78
2023-03-02T08:04:54.515Z,102373.34
2023-03-02T08:07:22.105Z,102373.28
2023-03-02T08:09:49.712Z,102374.13
2023-03-02T08:12:17.222Z,102368.81
2023-03-02T08:14:45.179Z,102370.53
2023-03-02T08:17:12.697Z,102373.94
2023-03-02T08:19:40.163Z,102374.81
2023-03-02T08:22:09.044Z,102375.63
2023-03-02T08:24:36.605Z,102366.06
2023-03-02T08:27:04.477Z,102371.28
2023-03-02T08:29:32.053Z,102380.78
2023-03-02T08:31:59.999Z,102375.53
2023-03-02T08:34:27.674Z,102371.19
2023-03-02T08:36:55.205Z,102373.78
2023-03-02T08:39:24.080Z,102377.22
2023-03-02T08:41:51.787Z,102378.94
2023-03-02T08:44:20.915Z,102372.81
2023-03-02T08:46:48.903Z,102371.09
2023-03-02T08:49:16.456Z,102377.09
2023-03-02T08:51:43.954Z,102373.50
2023-03-02T08:54:12.065Z,102374.31
2023-03-02T08:56:41.009Z,102366.38
2023-03-02T08:59:10.169Z,102369.72
2023-03-02T09:01:38.354Z,102381.84
2023-03-02T09:04:06.434Z,102380.94
2023-03-02T09:06:34.821Z,102367.91
2023-03-02T09:09:02.539Z,102373.94
2023-03-02T09:11:30.223Z,102376.44
2023-03-02T09:13:59.131Z,102371.91
2023-03-02T09:16:26.816Z,102376.19
2023-03-02T09:18:54.538Z,102381.25
2023-03-02T09:21:22.097Z,102374.22
2023-03-02T09:23:53.950Z,102369.78
2023-03-02T09:26:21.461Z,102361.75
2023-03-02T09:28:49.396Z,102359.84
2023-03-02T09:31:18.274Z,102358.81
2023-03-02T09:33:45.883Z,102363.91
2023-03-02T09:36:14.518Z,102364.78
2023-03-02T09:38:42.030Z,102358.66
2023-03-02T09:41:14.654Z,102356.72
2023-03-02T09:43:45.121Z,102354.75
2023-03-02T09:46:21.263Z,102358.03
2023-03-02T09:48:50.820Z,102351.81
2023-03-02T09:51:24.733Z,102353.41
2023-03-02T09:53:53.281Z,102354.97
2023-03-02T09:56:21.047Z,102351.34
2023-03-02T09:58:49.956Z,102356.53
2023-03-02T10:01:18.423Z,102361.66
2023-03-02T10:03:48.547Z,102360.72
2023-03-02T10:06:16.118Z,102369.34
2023-03-02T10:08:43.816Z,102367.56
2023-03-02T10:11:13.963Z,102362.38
2023-03-02T10:13:44.630Z,102364.00
2023-03-02T10:16:14.760Z,102367.38
2023-03-02T10:18:43.826Z,102359.47
2023-03-02T10:21:15.386Z,102359.38
2023-03-02T10:23:46.806Z,102351.41
2023-03-02T10:26:20.651Z,102357.41
2023-03-02T10:28:50.594Z,102352.91
2023-03-02T10:31:19.826Z,102352.72
2023-03-02T10:33:47.334Z,102362.91
2023-03-02T10:36:20.694Z,102360.06
2023-03-02T10:38:48.546Z,102353.81
2023-03-02T10:41:16.664Z,102351.06
2023-03-02T10:43:45.169Z,102358.75
2023-03-02T10:46:13.632Z,102351.66
2023-03-02T10:48:49.556Z,102348.94
2023-03-02T10:51:28.639Z,102348.84
2023-03-02T10:54:05.852Z,102348.69
2023-03-02T10:56:33.886Z,102347.59
2023-03-02T10:59:03.937Z,102345.75
2023-03-02T11:01:31.980Z,102337.00
2023-03-02T11:04:00.211Z,102340.44
2023-03-02T11:06:29.419Z,102344.53
2023-03-02T11:09:00.925Z,102348.66
2023-03-02T11:11:28.643Z,102339.56
2023-03-02T11:13:57.511Z,102338.38
2023-03-02T11:16:26.323Z,102331.16
2023-03-02T11:18:55.650Z,102336.28
2023-03-02T11:21:24.152Z,102331.78
2023-03-02T11:23:56.837Z,102337.75
2023-03-02T11:26:25.050Z,102339.34
2023-03-02T11:28:54.134Z,102339.28
2023-03-02T11:31:27.309Z,102333.75
2023-03-02T11:34:07.978Z,102338.69
2023-03-02T11:36:44.937Z,102335.00
2023-03-02T11:39:15.463Z,102328.78
2023-03-02T11:41:42.948Z,102321.72
2023-03-02T11:44:13.665Z,102315.41
2023-03-02T11:46:41.291Z,102319.53
2023-03-02T11:49:13.013Z,102314.91
2023-03-02T11:51:50.090Z,102305.09
2023-03-02T11:54:36.702Z,102307.63
2023-03-02T11:57:04.643Z,102317.88
2023-03-02T11:59:32.174Z,102305.63
2023-03-02T12:02:00.613Z,102297.44
2023-03-02T12:04:29.446Z,102294.50
2023-03-02T12:06:57.032Z,102292.44
2023-03-02T12:09:33.143Z,102283.66
2023-03-02T12:12:01.765Z,102285.38
2023-03-02T12:14:30.940Z,102278.41
2023-03-02T12:17:05.979Z,102278.28
2023-03-02T12:19:40.280Z,102268.50
2023-03-02T12:22:10.611Z,102269.94
2023-03-02T12:24:40.392Z,102261.94
2023-03-02T12:27:09.248Z,102253.84
2023-03-02T12:29:40.501Z,102256.25
2023-03-02T12:32:12.105Z,102236.78
2023-03-02T12:34:40.327Z,102257.38
2023-03-02T12:37:12.641Z,102243.13
2023-03-02T12:39:55.079Z,102239.34
2023-03-02T12:42:33.235Z,102231.28
2023-03-02T12:45:02.246Z,102232.88
2023-03-02T12:47:30.449Z,102228.34
2023-03-02T12:49:58.352Z,102223.94
2023-03-02T12:52:28.656Z,102231.53
2023-03-02T12:55:03.402Z,102216.53
2023-03-02T12:57:32.326Z,102215.66
2023-03-02T13:00:00.668Z,102207.72
2023-03-02T13:02:28.623Z,102208.56
2023-03-02T13:04:56.845Z,102205.94
2023-03-02T13:07:25.697Z,102203.50
2023-03-02T13:09:56.925Z,102195.75
2023-03-02T13:12:25.455Z,102192.34
2023-03-02T13:14:55.626Z,102186.97
2023-03-02T13:17:24.428Z,102187.81
2023-03-02T13:19:51.852Z,102190.34
2023-03-02T13:22:19.421Z,102182.47
2023-03-02T13:24:47.805Z,102176.34
2023-03-02T13:27:17.106Z,102172.84
2023-03-02T13:29:45.563Z,102171.09
2023-03-02T13:32:21.565Z,102172.75
2023-03-02T13:34:50.091Z,102171.69
2023-03-02T13:37:19.606Z,102169.66
2023-03-02T13:39:55.097Z,102182.69
2023-03-02T13:42:27.160Z,102182.63
2023-03-02T13:44:54.745Z,102173.03
2023-03-02T13:47:24.791Z,102171.19
2023-03-02T13:49:52.503Z,102171.19
2023-03-02T13:52:22.752Z,102176.19
2023-03-02T13:54:50.275Z,102168.94
2023-03-02T13:57:18.173Z,102171.47
2023-03-02T13:59:45.641Z,102170.41
2023-03-02T14:02:19.983Z,102170.38
2023-03-02T14:04:48.900Z,102168.59
2023-03-02T14:07:17.540Z,102162.34
2023-03-02T14:09:45.088Z,102163.94
2023-03-02T14:12:13.118Z,102157.75
2023-03-02T14:14:40.775Z,102162.94
2023-03-02T14:17:10.723Z,102155.06
2023-03-02T14:19:38.248Z,102155.97
2023-03-02T14:22:07.140Z,102147.19
2023-03-02T14:24:34.667Z,102151.38
2023-03-02T14:27:02.139Z,102144.16
2023-03-02T14:29:30.185Z,102146.63
2023-03-02T14:32:00.196Z,102144.81
2023-03-02T14:34:27.721Z,102148.22
2023-03-02T14:36:55.961Z,102137.63
2023-03-02T14:39:24.999Z,102142.03
2023-03-02T14:41:54.114Z,102142.03
2023-03-02T14:44:22.058Z,102137.84
2023-03-02T14:46:49.568Z,102132.72
2023-03-02T14:49:17.221Z,102134.56
2023-03-02T14:51:44.799Z,102120.50
2023-03-02T14:54:13.179Z,102127.44
2023-03-02T14:56:42.097Z,102137.97
2023-03-02T14:59:10.164Z,102131.00
2023-03-02T15:01:37.773Z,102130.31
2023-03-02T15:04:05.385Z,102133.91
2023-03-02T15:06:34.018Z,102132.19
2023-03-02T15:09:02.036Z,102131.41
2023-03-02T15:11:29.682Z,102133.13
2023-03-02T15:13:58.644Z,102141.91
2023-03-02T15:16:26.345Z,102140.34
2023-03-02T15:18:54.018Z,102127.50
2023-03-02T15:21:22.344Z,102136.59
2023-03-02T15:23:50.875Z,102138.66
2023-03-02T15:26:18.380Z,102133.75
2023-03-02T15:28:46.486Z,102132.25
2023-03-02T15:31:16.164Z,102128.13
2023-03-02T15:33:45.165Z,102128.34
2023-03-02T15:36:12.789Z,102124.28
2023-03-02T15:38:40.322Z,102132.41
2023-03-02T15:41:08.265Z,102123.03
2023-03-02T15:43:35.849Z,102131.06
2023-03-02T15:46:03.296Z,102130.34
2023-03-02T15:48:32.143Z,102120.94
2023-03-02T15:50:59.696Z,102122.03
2023-03-02T15:53:27.320Z,102117.88
2023-03-02T15:55:54.830Z,102111.06
2023-03-02T15:58:22.923Z,102120.78
2023-03-02T16:00:50.629Z,102112.16
2023-03-02T16:03:19.296Z,102118.38
2023-03-02T16:05:48.271Z,102117.56
2023-03-02T16:08:15.739Z,102118.47
2023-03-02T16:10:43.868Z,102121.16
2023-03-02T16:13:14.129Z,102123.84
2023-03-02T16:15:41.893Z,102126.63
2023-03-02T16:18:09.528Z,102134.56
2023-03-02T16:20:37.304Z,102129.47
2023-03-02T16:23:07.812Z,102131.41
2023-03-02T16:25:35.604Z,102136.84
2023-03-02T16:28:03.215Z,102140.41
2023-03-02T16:30:30.876Z,102140.59
2023-03-02T16:32:58.864Z,102142.47
2023-03-02T16:35:26.275Z,102149.63
2023-03-02T16:37:53.813Z,102147.19
2023-03-02T16:40:22.791Z,102146.56
2023-03-02T16:42:50.890Z,102158.09
2023-03-02T16:45:18.610Z,102150.47
2023-03-02T16:47:46.149Z,102148.94
2023-03-02T16:50:13.883Z,102159.63
2023-03-02T16:52:41.427Z,102165.94
2023-03-02T16:55:10.027Z,102168.72
2023-03-02T16:57:39.001Z,102168.09
2023-03-02T17:00:08.448Z,102172.72
2023-03-02T17:02:35.984Z,102172.09
2023-03-02T17:05:03.503Z,102178.38
2023-03-02T17:07:31.028Z,102179.44
2023-03-02T17:09:58.930Z,102190.97
2023-03-02T17:12:26.470Z,102189.44
2023-03-02T17:14:55.540Z,102194.00
2023-03-02T17:17:23.168Z,102188.94
2023-03-02T17:19:50.627Z,102191.75
2023-03-02T17:22:18.090Z,102189.31
2023-03-02T17:24:45.585Z,102202.50
2023-03-02T17:27:24.077Z,102207.03
2023-03-02T17:29:52.664Z,102213.31
2023-03-02T17:32:21.643Z,102217.06
2023-03-02T17:34:49.142Z,102209.41
2023-03-02T17:37:17.536Z,102219.13
2023-03-02T17:39:45.012Z,102222.75
2023-03-02T17:42:12.537Z,102229.00
2023-03-02T17:44:40.395Z,102231.75
2023-03-02T17:47:08.222Z,102237.16
2023-03-02T17:49:37.080Z,102231.16
2023-03-02T17:52:04.691Z,102230.47
2023-03-02T17:54:32.229Z,102234.97
2023-03-02T17:56:59.734Z,102232.50
2023-03-02T17:59:27.362Z,102238.69
2023-03-02T18:01:54.849Z,102244.91
2023-03-02T18:04:22.452Z,102238.94
2023-03-02T18:06:53.940Z,102240.81
2023-03-02T18:09:21.596Z,102243.47
2023-03-02T18:11:49.079Z,102245.28
2023-03-02T18:14:17.095Z,102251.47
2023-03-02T18:16:44.623Z,102252.47
2023-03-02T18:19:12.126Z,102253.44
2023-03-02T18:21:40.180Z,102250.09
2023-03-02T18:24:09.720Z,102256.28
2023-03-02T18:26:37.239Z,102255.47
2023-03-02T18:29:04.691Z,102268.59
2023-03-02T18:31:33.993Z,102264.31
2023-03-02T18:34:01.566Z,102271.34
2023-03-02T18:36:29.043Z,102268.78
2023-03-02T18:38:56.576Z,102272.34
2023-03-02T18:41:25.572Z,102268.00
2023-03-02T18:43:53.144Z,102275.06
2023-03-02T18:46:21.835Z,102272.53
2023-03-02T18:48:50.152Z,102278.59
2023-03-02T18:51:17.942Z,102271.75
2023-03-02T18:53:45.521Z,102277.94
2023-03-02T18:56:13.024Z,102275.41
2023-03-02T18:58:42.005Z,102272.84
2023-03-02T19:01:09.570Z,102272.94
2023-03-02T19:03:38.567Z,102281.66
2023-03-02T19:06:07.298Z,102271.28
2023-03-02T19:08:35.442Z,102281.78
2023-03-02T19:11:03.133Z,102284.50
2023-03-02T19:13:30.694Z,102287.22
2023-03-02T19:16:01.444Z,102283.84
2023-03-02T19:18:28.922Z,102282.19
2023-03-02T19:20:57.564Z,102281.38
2023-03-02T19:23:25.092Z,102279.72
2023-03-02T19:25:52.686Z,102282.34
2023-03-02T19:28:21.541Z,102273.72
2023-03-02T19:30:49.044Z,102280.69
2023-03-02T19:33:18.155Z,102278.97
2023-03-02T19:35:45.729Z,102277.34
2023-03-02T19:38:13.320Z,102289.53
2023-03-02T19:40:40.770Z,102288.69
2023-03-02T19:43:08.352Z,102281.78
2023-03-02T19:45:36.254Z,102287.97
2023-03-02T19:48:03.785Z,102281.09
2023-03-02T19:50:32.896Z,102289.81
2023-03-02T19:53:00.386Z,102289.88
2023-03-02T19:55:28.032Z,102289.00
2023-03-02T19:58:00.177Z,102284.72
2023-03-02T20:00:28.268Z,102289.13
2023-03-02T20:02:56.053Z,102293.50
2023-03-02T20:05:23.519Z,102289.22
2023-03-02T20:07:52.414Z,102289.25
2023-03-02T20:10:23.461Z,102290.16
2023-03-02T20:12:50.952Z,102290.19
2023-03-02T20:15:18.651Z,102284.97
2023-03-02T20:17:46.124Z,102285.03
2023-03-02T20:20:13.769Z,102291.19
2023-03-02T20:22:41.298Z,102289.53
2023-03-02T20:25:10.464Z,102292.16
2023-03-02T20:27:38.038Z,102298.28
2023-03-02T20:30:06.937Z,102302.66
2023-03-02T20:32:34.437Z,102300.91
2023-03-02T20:35:02.095Z,102294.84
2023-03-02T20:37:29.563Z,102300.91
2023-03-02T20:39:57.328Z,102304.38
2023-03-02T20:42:27.366Z,102299.16
2023-03-02T20:44:56.327Z,102301.78
2023-03-02T20:47:23.893Z,102302.66
2023-03-02T20:49:51.387Z,102309.63
2023-03-02T20:52:18.885Z,102311.41
2023-03-02T20:54:46.416Z,102311.41
2023-03-02T20:57:14.530Z,102302.69
2023-03-02T20:59:45.694Z,102311.44
2023-03-02T21:02:14.003Z,102311.41
2023-03-02T21:04:42.448Z,102310.56
2023-03-02T21:07:10.220Z,102313.13
2023-03-02T21:09:37.732Z,102311.41
2023-03-02T21:12:08.694Z,102302.78
2023-03-02T21:14:36.440Z,102311.44
2023-03-02T21:17:05.516Z,102314.09
2023-03-02T21:19:34.075Z,102310.63
2023-03-02T21:22:01.680Z,102312.34
2023-03-02T21:24:29.454Z,102316.69
2023-03-02T21:26:57.067Z,102316.63
2023-03-02T21:29:26.648Z,102322.69
2023-03-02T21:31:54.427Z,102321.84
2023-03-02T21:34:23.332Z,102311.41
2023-03-02T21:36:53.451Z,102311.41
2023-03-02T21:39:22.026Z,102313.13
2023-03-02T21:41:49.734Z,102310.56
2023-03-02T21:44:17.267Z,102312.34
2023-03-02T21:46:44.802Z,102319.41
2023-03-02T21:49:12.962Z,102322.88
2023-03-02T21:51:41.836Z,102323.75
2023-03-02T21:54:09.400Z,102322.88
2023-03-02T21:56:36.897Z,102328.09
2023-03-02T21:59:05.002Z,102320.22
2023-03-02T22:01:32.838Z,102327.16
2023-03-02T22:04:00.696Z,102321.97
2023-03-02T22:06:30.113Z,102322.06
2023-03-02T22:08:59.884Z,102322.13
2023-03-02T22:11:28.159Z,102316.13
2023-03-02T22:13:56.059Z,102311.88
2023-03-02T22:16:24.230Z,102310.19
2023-03-02T22:18:54.122Z,102305.91
2023-03-02T22:21:24.612Z,102311.97
2023-03-02T22:23:53.868Z,102311.97
2023-03-02T22:26:22.747Z,102306.75
2023-03-02T22:28:50.264Z,102313.69
2023-03-02T22:31:19.634Z,102319.78
2023-03-02T22:33:47.106Z,102313.75
2023-03-02T22:36:22.001Z,102325.03
2023-03-02T22:38:49.611Z,102321.56
2023-03-02T22:41:17.752Z,102317.19
2023-03-02T22:43:46.877Z,102317.22
2023-03-02T22:46:17.401Z,102336.31
2023-03-02T22:48:45.967Z,102342.38
2023-03-02T22:51:15.072Z,102344.09
2023-03-02T22:53:52.285Z,102334.53
2023-03-02T22:56:29.906Z,102341.53
2023-03-02T22:58:59.441Z,102343.34
2023-03-02T23:01:27.567Z,102346.91
2023-03-02T23:03:55.556Z,102346.97
2023-03-02T23:06:27.504Z,102348.78
2023-03-02T23:08:55.631Z,102342.75
2023-03-02T23:11:23.667Z,102341.03
2023-03-02T23:13:52.196Z,102347.97
2023-03-02T23:16:21.657Z,102340.16
2023-03-02T23:18:49.591Z,102340.13
2023-03-02T23:21:18.498Z,102343.66
2023-03-02T23:23:46.025Z,102343.66
2023-03-02T23:26:13.492Z,102344.53
2023-03-02T23:28:41.020Z,102343.66
2023-03-02T23:31:08.487Z,102345.38
2023-03-02T23:33:37.343Z,102347.09
2023-03-02T23:36:04.996Z,102348.78
2023-03-02T23:38:32.501Z,102348.72
2023-03-02T23:41:00.052Z,102343.50
2023-03-02T23:43:27.517Z,102347.00
2023-03-02T23:45:56.032Z,102336.56
2023-03-02T23:48:23.892Z,102342.63
2023-03-02T23:50:52.798Z,102330.50
2023-03-02T23:53:20.308Z,102341.84
2023-03-02T23:55:48.422Z,102340.16
2023-03-02T23:58:15.905Z,102339.38
